Time;durP1;ratioP1;P1;durP2;ratioP2;P2;SDS_P1;SDS_P2;PMS_P1;PMS_P2;Temp;Humidity;BMP_temperature;BMP_pressure;BME280_temperature;BME280_humidity;BME280_pressure;Samples;Min_cycle;Max_cycle;Signal;HPM_P1;HPM_P2
2022/10/13 00:01:24;;;;;;;11.93;7.53;;;9.40;99.90;;;;;;5066550;28;20481;-83
2022/10/13 00:03:53;;;;;;;8.47;6.90;;;9.40;99.90;;;;;;5066588;28;20815;-83
2022/10/13 00:06:24;;;;;;;9.70;6.80;;;9.40;99.90;;;;;;5066575;28;20891;-83
2022/10/13 00:08:53;;;;;;;9.10;6.87;;;9.40;99.90;;;;;;5066532;28;20450;-83
2022/10/13 00:11:23;;;;;;;12.00;6.93;;;9.30;99.90;;;;;;5067707;28;20430;-83
2022/10/13 00:13:55;;;;;;;7.63;6.70;;;9.30;99.90;;;;;;5066665;28;20439;-83
2022/10/13 00:16:24;;;;;;;9.33;6.57;;;9.30;99.90;;;;;;5067837;28;20481;-83
2022/10/13 00:18:52;;;;;;;8.77;7.20;;;9.30;99.90;;;;;;5066853;28;20442;-83
2022/10/13 00:21:23;;;;;;;9.20;6.90;;;9.30;99.90;;;;;;5066980;28;20457;-84
2022/10/13 00:23:52;;;;;;;8.70;7.37;;;9.30;99.90;;;;;;5067981;28;20815;-83
2022/10/13 00:26:21;;;;;;;7.60;6.27;;;9.30;99.90;;;;;;5067223;28;20498;-82
2022/10/13 00:28:50;;;;;;;11.10;7.07;;;9.30;99.90;;;;;;5067378;28;20813;-84
2022/10/13 00:31:23;;;;;;;8.67;7.03;;;9.30;99.90;;;;;;5066983;28;20903;-82
2022/10/13 00:33:52;;;;;;;7.00;6.30;;;9.30;99.90;;;;;;5067427;28;20488;-84
2022/10/13 00:36:23;;;;;;;8.40;6.80;;;9.20;99.90;;;;;;5067267;28;20813;-82
2022/10/13 00:38:51;;;;;;;10.67;7.00;;;9.30;99.90;;;;;;5067197;28;20448;-83
2022/10/13 00:41:20;;;;;;;9.43;6.93;;;9.20;99.90;;;;;;5067100;28;20454;-83
2022/10/13 00:43:55;;;;;;;9.57;7.30;;;9.20;99.90;;;;;;5067885;28;20793;-83
2022/10/13 00:46:26;;;;;;;7.80;7.00;;;9.20;99.90;;;;;;5068010;28;20505;-83
2022/10/13 00:49:00;;;;;;;9.93;6.50;;;9.20;99.90;;;;;;5069286;28;20434;-83
2022/10/13 00:51:32;;;;;;;8.83;6.60;;;9.20;99.90;;;;;;5069318;28;20442;-83
2022/10/13 00:54:03;;;;;;;9.87;6.97;;;9.20;99.90;;;;;;5073079;28;20531;-83
2022/10/13 00:56:32;;;;;;;9.40;7.30;;;9.20;99.90;;;;;;5074255;28;20470;-83
2022/10/13 00:59:01;;;;;;;7.53;6.73;;;9.20;99.90;;;;;;5074320;28;20449;-83
2022/10/13 01:01:31;;;;;;;8.27;6.63;;;9.60;99.90;;;;;;5077921;28;20414;-84
2022/10/13 01:04:00;;;;;;;8.47;7.00;;;9.20;99.90;;;;;;5081163;28;20448;-83
2022/10/13 01:06:28;;;;;;;7.83;6.97;;;8.90;99.90;;;;;;5079313;28;20478;-84
2022/10/13 01:08:56;;;;;;;10.13;7.57;;;9.20;99.90;;;;;;5079822;28;20442;-84
2022/10/13 01:11:45;;;;;;;8.97;7.40;;;9.20;99.90;;;;;;5080560;28;20466;-84
2022/10/13 01:14:25;;;;;;;16.23;8.27;;;9.20;99.90;;;;;;5080125;28;20437;-82
2022/10/13 01:17:02;;;;;;;10.40;7.67;;;9.20;99.90;;;;;;5081029;28;20504;-83
2022/10/13 01:19:55;;;;;;;9.70;6.70;;;9.20;99.90;;;;;;5080322;28;20464;-82
2022/10/13 01:22:40;;;;;;;8.83;7.03;;;9.20;99.90;;;;;;5079704;28;20422;-83
2022/10/13 01:25:21;;;;;;;9.87;7.93;;;9.20;99.90;;;;;;5080705;28;20448;-83
2022/10/13 01:28:08;;;;;;;9.83;7.63;;;9.20;99.90;;;;;;5079023;28;20473;-84
2022/10/13 01:30:45;;;;;;;9.83;7.67;;;9.10;99.90;;;;;;5079953;28;20430;-82
2022/10/13 01:33:22;;;;;;;10.63;7.80;;;9.20;99.90;;;;;;5080262;28;20485;-83
2022/10/13 01:36:11;;;;;;;9.33;7.60;;;9.30;99.90;;;;;;5079458;28;20470;-84
2022/10/13 01:38:46;;;;;;;11.80;7.63;;;9.20;99.90;;;;;;5079058;28;20426;-83
2022/10/13 01:41:20;;;;;;;12.30;7.93;;;9.20;99.90;;;;;;5076641;28;20436;-84
2022/10/13 01:43:53;;;;;;;10.70;8.10;;;9.20;99.90;;;;;;5071073;28;20484;-84
2022/10/13 01:46:27;;;;;;;11.30;8.80;;;9.20;99.90;;;;;;5068037;28;20473;-81
2022/10/13 01:48:58;;;;;;;11.90;8.57;;;9.20;99.90;;;;;;5068773;28;20465;-82
2022/10/13 01:51:29;;;;;;;11.73;8.77;;;9.20;99.90;;;;;;5067563;28;20434;-83
2022/10/13 01:53:57;;;;;;;13.47;8.93;;;9.20;99.90;;;;;;5067101;28;20445;-84
2022/10/13 01:56:25;;;;;;;11.33;8.77;;;9.20;99.90;;;;;;5066529;28;20469;-81
2022/10/13 01:58:56;;;;;;;9.90;8.90;;;9.20;99.90;;;;;;5065807;28;20454;-84
2022/10/13 02:01:36;;;;;;;14.30;9.60;;;9.30;99.90;;;;;;5065917;28;20434;-83
2022/10/13 02:04:14;;;;;;;11.27;10.07;;;9.30;99.90;;;;;;5067424;28;20792;-85
2022/10/13 02:06:47;;;;;;;11.77;10.13;;;9.20;99.90;;;;;;5069643;28;20465;-83
2022/10/13 02:09:26;;;;;;;15.20;10.73;;;9.20;99.90;;;;;;5071032;28;20438;-84
2022/10/13 02:11:58;;;;;;;11.67;9.27;;;9.20;99.90;;;;;;5071037;28;20548;-84
2022/10/13 02:14:33;;;;;;;13.80;10.07;;;9.20;99.90;;;;;;5071145;28;20474;-83
2022/10/13 02:17:05;;;;;;;13.23;11.93;;;9.20;99.90;;;;;;5072728;28;20427;-84
2022/10/13 02:19:37;;;;;;;17.07;15.23;;;9.20;99.90;;;;;;5072674;28;20422;-84
2022/10/13 02:22:08;;;;;;;14.80;13.30;;;9.20;99.90;;;;;;5071035;28;20509;-84
2022/10/13 02:24:36;;;;;;;13.27;11.93;;;9.20;99.90;;;;;;5069951;28;20946;-83
2022/10/13 02:27:06;;;;;;;14.37;13.10;;;9.20;99.90;;;;;;5069976;28;20458;-84
2022/10/13 02:29:34;;;;;;;13.47;12.17;;;9.20;99.90;;;;;;5069266;28;20449;-83
2022/10/13 02:32:04;;;;;;;13.63;12.23;;;9.20;99.90;;;;;;5069615;28;20516;-84
2022/10/13 02:34:32;;;;;;;13.60;11.77;;;9.20;99.90;;;;;;5071484;28;20526;-84
2022/10/13 02:37:00;;;;;;;13.70;11.80;;;9.20;99.90;;;;;;5070974;28;20430;-84
2022/10/13 02:39:28;;;;;;;12.03;10.87;;;9.20;99.90;;;;;;5069119;28;20454;-84
2022/10/13 02:41:57;;;;;;;17.13;11.50;;;9.20;99.90;;;;;;5069381;28;20446;-82
2022/10/13 02:44:25;;;;;;;13.43;11.13;;;9.20;99.90;;;;;;5069220;28;20513;-82
2022/10/13 02:46:53;;;;;;;12.30;11.00;;;9.20;99.90;;;;;;5068514;28;20481;-83
2022/10/13 02:49:23;;;;;;;13.87;11.33;;;9.20;99.90;;;;;;5071093;28;20482;-83
2022/10/13 02:51:52;;;;;;;13.10;11.77;;;9.30;99.90;;;;;;5071288;28;20446;-84
2022/10/13 02:54:20;;;;;;;12.30;10.63;;;9.20;99.90;;;;;;5071379;28;20462;-84
2022/10/13 02:56:48;;;;;;;17.70;12.50;;;9.20;99.90;;;;;;5069524;28;20465;-84
2022/10/13 02:59:16;;;;;;;16.60;12.23;;;9.20;99.90;;;;;;5069729;28;20458;-82
2022/10/13 03:01:44;;;;;;;14.87;11.67;;;9.20;99.90;;;;;;5069344;28;20479;-83
2022/10/13 03:04:12;;;;;;;13.73;12.17;;;9.30;99.90;;;;;;5070409;28;20931;-82
2022/10/13 03:06:42;;;;;;;14.60;12.20;;;9.20;99.90;;;;;;5069601;28;20462;-82
2022/10/13 03:09:12;;;;;;;20.40;13.43;;;9.20;99.90;;;;;;5067743;28;20462;-83
2022/10/13 03:11:43;;;;;;;13.20;11.23;;;9.40;99.90;;;;;;5067821;28;20418;-83
2022/10/13 03:14:12;;;;;;;19.70;17.60;;;9.20;99.90;;;;;;5068754;28;20860;-83
2022/10/13 03:16:40;;;;;;;21.67;19.20;;;9.20;99.90;;;;;;5066725;28;20473;-83
2022/10/13 03:19:10;;;;;;;15.77;14.13;;;9.20;99.90;;;;;;5067715;28;20469;-84
2022/10/13 03:21:39;;;;;;;17.57;13.50;;;9.20;99.90;;;;;;5067938;28;20442;-83
2022/10/13 03:24:08;;;;;;;15.20;13.47;;;9.10;99.90;;;;;;5066345;28;20457;-82
2022/10/13 03:26:37;;;;;;;21.37;17.90;;;9.30;99.90;;;;;;5066387;28;20468;-83
2022/10/13 03:29:05;;;;;;;17.87;15.90;;;9.20;99.90;;;;;;5066481;28;20470;-83
2022/10/13 03:31:33;;;;;;;17.70;14.20;;;9.20;99.90;;;;;;5066346;28;20450;-82
2022/10/13 03:34:03;;;;;;;16.90;13.73;;;9.30;99.90;;;;;;5066265;28;20461;-81
2022/10/13 03:36:32;;;;;;;19.40;13.07;;;9.30;99.90;;;;;;5066474;28;20478;-83
2022/10/13 03:39:00;;;;;;;15.60;12.30;;;9.20;99.90;;;;;;5067133;28;20458;-82
2022/10/13 03:41:29;;;;;;;15.23;12.70;;;9.20;99.90;;;;;;5066316;28;20445;-83
2022/10/13 03:43:57;;;;;;;15.80;13.83;;;9.20;99.90;;;;;;5066807;28;20454;-83
2022/10/13 03:46:29;;;;;;;14.50;13.00;;;9.20;99.90;;;;;;5066308;28;20478;-82
2022/10/13 03:48:58;;;;;;;16.83;13.23;;;9.20;99.90;;;;;;5065328;28;20480;-82
2022/10/13 03:51:28;;;;;;;14.33;12.80;;;9.30;99.90;;;;;;5065604;28;20994;-82
2022/10/13 03:53:56;;;;;;;16.60;14.80;;;9.30;99.90;;;;;;5067245;28;20510;-82
2022/10/13 03:56:26;;;;;;;21.00;16.57;;;9.30;99.90;;;;;;5065033;28;20465;-82
2022/10/13 03:58:59;;;;;;;22.27;18.70;;;9.20;99.90;;;;;;5065608;28;20804;-83
2022/10/13 04:01:29;;;;;;;23.63;17.53;;;9.20;99.90;;;;;;5064709;28;20449;-83
2022/10/13 04:04:01;;;;;;;18.10;15.77;;;9.30;99.90;;;;;;5066993;28;20892;-83
2022/10/13 04:06:30;;;;;;;19.10;14.33;;;9.30;99.90;;;;;;5065036;28;20470;-83
2022/10/13 04:08:58;;;;;;;16.73;14.93;;;9.30;99.90;;;;;;5064501;28;20475;-82
2022/10/13 04:11:26;;;;;;;17.23;14.47;;;9.80;99.90;;;;;;5064820;28;20450;-81
2022/10/13 04:13:57;;;;;;;19.57;14.80;;;9.30;99.90;;;;;;5065026;28;20460;-83
2022/10/13 04:16:29;;;;;;;17.00;15.23;;;9.30;99.90;;;;;;5065007;28;20458;-83
2022/10/13 04:19:01;;;;;;;18.37;15.30;;;9.30;99.90;;;;;;5066309;28;20427;-81
2022/10/13 04:21:33;;;;;;;23.33;17.43;;;9.30;99.90;;;;;;5066537;28;20441;-83
2022/10/13 04:24:03;;;;;;;20.40;15.90;;;9.30;99.90;;;;;;5065455;28;20446;-84
2022/10/13 04:26:34;;;;;;;16.87;15.23;;;9.40;99.90;;;;;;5065460;28;20533;-82
2022/10/13 04:29:13;;;;;;;19.23;14.90;;;9.30;99.90;;;;;;5064947;28;20462;-82
2022/10/13 04:31:42;;;;;;;16.60;15.00;;;9.30;99.90;;;;;;5065123;28;20450;-82
2022/10/13 04:34:11;;;;;;;20.97;16.17;;;9.30;99.90;;;;;;5066798;28;20517;-83
2022/10/13 04:36:39;;;;;;;18.20;15.40;;;9.30;99.90;;;;;;5064596;28;20497;-82
2022/10/13 04:39:07;;;;;;;17.17;14.67;;;9.40;99.90;;;;;;5067391;28;20442;-83
2022/10/13 04:41:35;;;;;;;24.13;21.73;;;9.40;99.90;;;;;;5066509;28;20541;-83
2022/10/13 04:44:03;;;;;;;19.53;17.30;;;9.30;99.90;;;;;;5066138;28;20516;-83
2022/10/13 04:46:33;;;;;;;18.47;16.50;;;9.40;99.90;;;;;;5065792;28;20537;-83
2022/10/13 04:49:01;;;;;;;20.50;17.93;;;9.40;99.90;;;;;;5067306;28;20500;-84
2022/10/13 04:51:32;;;;;;;21.50;17.17;;;9.40;99.90;;;;;;5066482;28;20537;-82
2022/10/13 04:54:02;;;;;;;18.47;16.57;;;9.50;99.90;;;;;;5064842;28;20481;-84
2022/10/13 04:56:30;;;;;;;20.07;16.77;;;9.40;99.90;;;;;;5062412;28;20537;-82
2022/10/13 04:59:04;;;;;;;18.60;16.83;;;9.40;99.90;;;;;;5063389;28;20521;-81
2022/10/13 05:01:34;;;;;;;19.93;17.60;;;9.40;99.90;;;;;;5062765;28;20442;-82
2022/10/13 05:04:06;;;;;;;23.00;18.70;;;9.40;99.90;;;;;;5063659;28;20446;-82
2022/10/13 05:06:39;;;;;;;22.27;19.30;;;9.40;99.90;;;;;;5061634;28;20462;-82
2022/10/13 05:09:27;;;;;;;22.57;20.13;;;9.50;99.90;;;;;;5060146;28;20454;-83
2022/10/13 05:11:56;;;;;;;26.37;20.37;;;9.50;99.90;;;;;;5060514;28;20446;-82
2022/10/13 05:14:25;;;;;;;22.03;19.40;;;9.50;99.90;;;;;;5060808;28;20465;-82
2022/10/13 05:16:54;;;;;;;23.47;18.87;;;9.50;99.90;;;;;;5062097;28;20828;-81
2022/10/13 05:19:22;;;;;;;23.17;20.30;;;9.50;99.90;;;;;;5061315;28;20434;-82
2022/10/13 05:21:52;;;;;;;23.00;20.50;;;9.60;99.90;;;;;;5058745;28;20916;-81
2022/10/13 05:24:29;;;;;;;21.70;19.40;;;9.60;99.90;;;;;;5061455;28;20446;-81
2022/10/13 05:26:57;;;;;;;23.20;20.37;;;9.80;99.90;;;;;;5061174;28;20437;-80
2022/10/13 05:29:26;;;;;;;30.33;21.83;;;9.60;99.90;;;;;;5060416;28;20534;-82
2022/10/13 05:31:55;;;;;;;25.40;22.80;;;9.60;99.90;;;;;;5061759;28;20859;-81
2022/10/13 05:34:23;;;;;;;25.70;23.00;;;9.60;99.90;;;;;;5061529;28;20449;-82
2022/10/13 05:36:56;;;;;;;25.97;21.30;;;9.60;99.90;;;;;;5062586;28;20537;-82
2022/10/13 05:39:24;;;;;;;23.13;19.97;;;9.60;99.90;;;;;;5064139;28;20466;-81
2022/10/13 05:41:52;;;;;;;23.87;21.37;;;9.60;99.90;;;;;;5066034;28;20848;-81
2022/10/13 05:44:21;;;;;;;21.87;19.57;;;9.70;99.90;;;;;;5065051;28;20943;-81
2022/10/13 05:46:57;;;;;;;28.20;22.93;;;9.70;99.90;;;;;;5064566;28;20560;-82
2022/10/13 05:49:25;;;;;;;25.90;22.47;;;9.70;99.90;;;;;;5065844;28;20484;-82
2022/10/13 05:51:57;;;;;;;25.80;23.20;;;9.60;99.90;;;;;;5063921;28;20438;-82
2022/10/13 05:54:29;;;;;;;25.27;22.53;;;9.70;99.90;;;;;;5065455;28;20428;-81
2022/10/13 05:57:01;;;;;;;25.40;22.47;;;9.70;99.90;;;;;;5064390;28;20446;-81
2022/10/13 05:59:32;;;;;;;29.77;21.50;;;9.70;99.90;;;;;;5063021;28;20855;-81
2022/10/13 06:02:03;;;;;;;25.60;22.93;;;9.70;99.90;;;;;;5063342;28;20448;-81
2022/10/13 06:04:37;;;;;;;24.67;22.03;;;9.80;99.90;;;;;;5065399;28;20426;-81
2022/10/13 06:07:06;;;;;;;31.43;24.73;;;9.80;99.90;;;;;;5072810;28;20528;-82
2022/10/13 06:09:37;;;;;;;26.90;23.37;;;9.80;99.90;;;;;;5069676;28;20470;-83
2022/10/13 06:12:06;;;;;;;26.37;23.70;;;9.80;99.90;;;;;;5067697;28;20533;-81
2022/10/13 06:14:34;;;;;;;25.50;22.80;;;9.80;99.90;;;;;;5066775;28;20575;-81
2022/10/13 06:17:07;;;;;;;28.13;23.57;;;9.80;99.90;;;;;;5067047;28;20434;-81
2022/10/13 06:19:37;;;;;;;25.80;22.70;;;9.80;99.90;;;;;;5065888;28;20435;-81
2022/10/13 06:22:08;;;;;;;26.20;23.57;;;9.80;99.90;;;;;;5064556;28;20449;-81
2022/10/13 06:24:36;;;;;;;28.00;24.80;;;9.80;99.90;;;;;;5065948;28;20793;-81
2022/10/13 06:27:08;;;;;;;27.87;24.60;;;9.90;99.90;;;;;;5068666;28;20421;-81
2022/10/13 06:29:36;;;;;;;27.23;23.70;;;9.90;99.90;;;;;;5066866;28;20458;-81
2022/10/13 06:32:06;;;;;;;27.53;24.63;;;9.90;99.90;;;;;;5067138;28;20862;-84
2022/10/13 06:34:35;;;;;;;27.20;24.17;;;9.90;99.90;;;;;;5067114;28;20473;-83
2022/10/13 06:37:03;;;;;;;27.63;24.17;;;10.00;99.90;;;;;;5066839;28;20461;-83
2022/10/13 06:39:31;;;;;;;28.40;25.40;;;10.00;99.90;;;;;;5066371;28;20456;-83
2022/10/13 06:42:03;;;;;;;28.57;25.50;;;10.00;99.90;;;;;;5067010;28;20426;-82
2022/10/13 06:44:37;;;;;;;28.03;24.30;;;10.00;99.90;;;;;;5065036;28;20446;-83
2022/10/13 06:47:10;;;;;;;26.83;23.93;;;10.10;99.90;;;;;;5064796;28;20445;-82
2022/10/13 06:49:38;;;;;;;27.73;25.13;;;10.10;99.90;;;;;;5064586;28;20533;-83
2022/10/13 06:52:06;;;;;;;27.70;24.40;;;10.10;99.90;;;;;;5066756;28;20460;-83
2022/10/13 06:54:34;;;;;;;27.53;25.00;;;10.10;99.90;;;;;;5065042;28;20446;-82
2022/10/13 06:57:05;;;;;;;30.77;26.20;;;10.10;99.90;;;;;;5064032;28;20434;-83
2022/10/13 06:59:33;;;;;;;28.67;25.47;;;10.20;99.90;;;;;;5067126;28;20430;-83
2022/10/13 07:02:01;;;;;;;30.07;25.77;;;10.10;99.90;;;;;;5064693;28;20810;-82
2022/10/13 07:04:31;;;;;;;28.70;25.67;;;10.20;99.90;;;;;;5065155;28;20480;-84
2022/10/13 07:06:59;;;;;;;27.87;25.07;;;10.20;99.90;;;;;;5065964;28;20444;-81
2022/10/13 07:09:27;;;;;;;30.97;25.53;;;10.20;99.90;;;;;;5064299;28;20866;-83
2022/10/13 07:11:55;;;;;;;32.90;27.13;;;10.30;99.90;;;;;;5065354;28;20843;-82
2022/10/13 07:14:24;;;;;;;27.37;24.33;;;10.30;99.90;;;;;;5064005;28;20465;-80
2022/10/13 07:16:52;;;;;;;30.47;25.23;;;10.30;99.90;;;;;;5063964;28;20497;-82
2022/10/13 07:19:21;;;;;;;45.30;27.50;;;10.30;99.90;;;;;;5063323;28;20442;-82
2022/10/13 07:21:50;;;;;;;27.87;25.07;;;10.40;99.90;;;;;;5062720;28;20454;-82
2022/10/13 07:24:20;;;;;;;30.33;24.67;;;10.40;99.90;;;;;;5062898;28;20813;-84
2022/10/13 07:26:48;;;;;;;33.03;26.40;;;10.40;99.90;;;;;;5061721;28;20469;-82
2022/10/13 07:29:16;;;;;;;26.60;23.80;;;10.50;99.90;;;;;;5065740;28;20461;-82
2022/10/13 07:31:45;;;;;;;27.23;24.37;;;10.50;99.90;;;;;;5063511;28;20849;-82
2022/10/13 07:34:14;;;;;;;29.20;26.10;;;10.50;99.90;;;;;;5065459;28;20465;-82
2022/10/13 07:36:42;;;;;;;31.83;24.97;;;10.60;99.90;;;;;;5062773;28;21021;-81
2022/10/13 07:39:12;;;;;;;53.40;37.30;;;10.50;99.90;;;;;;5063830;28;20484;-82
2022/10/13 07:41:40;;;;;;;37.83;31.57;;;10.60;99.90;;;;;;5065776;28;20532;-82
2022/10/13 07:44:08;;;;;;;31.73;26.00;;;10.60;99.90;;;;;;5060538;28;20473;-82
2022/10/13 07:46:36;;;;;;;35.70;28.30;;;10.70;99.90;;;;;;5061284;28;20466;-81
2022/10/13 07:49:05;;;;;;;28.97;25.97;;;10.70;99.90;;;;;;5062134;28;20796;-82
2022/10/13 07:51:33;;;;;;;34.80;26.10;;;10.70;99.90;;;;;;5058026;28;20465;-83
2022/10/13 07:54:01;;;;;;;30.20;26.87;;;10.70;99.90;;;;;;5059950;28;20470;-82
2022/10/13 07:56:30;;;;;;;30.37;25.97;;;10.70;99.90;;;;;;5061709;28;20462;-80
2022/10/13 07:58:58;;;;;;;31.97;24.57;;;10.80;99.90;;;;;;5060957;28;20492;-81
2022/10/13 08:01:27;;;;;;;28.37;25.47;;;10.80;99.90;;;;;;5060061;28;20545;-80
2022/10/13 08:03:55;;;;;;;28.50;25.50;;;10.90;99.90;;;;;;5062184;28;20438;-82
2022/10/13 08:06:24;;;;;;;29.27;25.77;;;10.90;99.90;;;;;;5063264;28;20552;-81
2022/10/13 08:08:56;;;;;;;29.50;26.13;;;10.90;99.90;;;;;;5063750;28;20791;-80
2022/10/13 08:11:24;;;;;;;28.20;25.50;;;11.00;99.90;;;;;;5064260;28;20986;-79
2022/10/13 08:13:54;;;;;;;29.10;25.60;;;11.10;99.90;;;;;;5062089;28;20446;-80
2022/10/13 08:16:23;;;;;;;29.00;25.90;;;11.10;99.90;;;;;;5061514;28;20534;-80
2022/10/13 08:18:51;;;;;;;28.10;25.10;;;11.20;99.90;;;;;;5061757;28;20464;-83
2022/10/13 08:21:22;;;;;;;27.20;24.40;;;11.30;99.90;;;;;;5061670;28;20860;-82
2022/10/13 08:24:12;;;;;;;29.30;26.30;;;11.30;99.90;;;;;;5060875;28;20438;-83
2022/10/13 08:26:41;;;;;;;28.33;25.37;;;11.50;99.90;;;;;;5060491;28;20513;-83
2022/10/13 08:29:12;;;;;;;28.87;24.37;;;11.60;99.90;;;;;;5069004;28;20465;-83
2022/10/13 08:31:55;;;;;;;26.73;23.83;;;11.70;99.90;;;;;;5068441;28;20462;-80
2022/10/13 08:34:24;;;;;;;29.67;26.30;;;11.90;99.90;;;;;;5068798;28;20821;-83
2022/10/13 08:36:55;;;;;;;29.87;24.90;;;12.00;99.90;;;;;;5069472;28;20473;-82
2022/10/13 08:39:24;;;;;;;28.17;24.80;;;12.10;99.90;;;;;;5069690;28;20461;-84
2022/10/13 08:41:54;;;;;;;27.37;24.47;;;12.10;99.90;;;;;;5067347;28;20449;-85
2022/10/13 08:44:26;;;;;;;27.40;24.60;;;12.20;99.90;;;;;;5066352;28;20857;-84
2022/10/13 08:47:24;;;;;;;25.67;22.40;;;12.30;99.90;;;;;;5065913;28;20457;-82
2022/10/13 08:49:53;;;;;;;25.73;23.10;;;12.40;99.90;;;;;;5066767;28;20520;-83
2022/10/13 08:52:29;;;;;;;26.93;23.80;;;12.40;99.90;;;;;;5068468;28;20966;-84
2022/10/13 08:54:58;;;;;;;25.20;22.60;;;12.50;99.90;;;;;;5067826;28;20454;-83
2022/10/13 08:57:26;;;;;;;24.93;22.33;;;12.50;99.90;;;;;;5067007;28;20472;-83
2022/10/13 08:59:56;;;;;;;25.37;20.93;;;12.60;99.90;;;;;;5064170;28;20445;-83
2022/10/13 09:02:29;;;;;;;23.87;21.43;;;12.70;99.90;;;;;;5064789;28;20446;-82
2022/10/13 09:05:01;;;;;;;24.77;21.93;;;12.80;99.90;;;;;;5066787;28;20454;-82
2022/10/13 09:07:34;;;;;;;26.10;21.23;;;12.80;99.90;;;;;;5068640;28;20422;-82
2022/10/13 09:10:02;;;;;;;26.20;20.53;;;12.90;99.90;;;;;;5064087;28;20444;-82
2022/10/13 09:12:32;;;;;;;22.80;20.30;;;13.00;99.90;;;;;;5062042;28;20462;-84
2022/10/13 09:15:08;;;;;;;25.00;21.53;;;13.00;99.90;;;;;;5064264;28;20465;-83
2022/10/13 09:17:38;;;;;;;23.00;20.67;;;13.10;99.90;;;;;;5066715;28;20427;-82
2022/10/13 09:20:18;;;;;;;24.23;21.67;;;13.20;99.90;;;;;;5066201;28;20958;-82
2022/10/13 09:23:01;;;;;;;33.37;23.23;;;13.30;99.90;;;;;;5069417;28;20504;-83
2022/10/13 09:25:38;;;;;;;22.27;19.93;;;13.40;99.90;;;;;;5068077;28;20454;-82
2022/10/13 09:28:13;;;;;;;22.53;20.20;;;13.50;99.90;;;;;;5066665;28;20803;-84
2022/10/13 09:30:45;;;;;;;21.90;19.60;;;13.50;99.90;;;;;;5065069;28;20805;-81
2022/10/13 09:33:23;;;;;;;24.13;21.23;;;13.60;99.90;;;;;;5064551;28;20425;-82
2022/10/13 09:36:09;;;;;;;22.80;20.40;;;13.70;99.90;;;;;;5061856;28;20528;-80
2022/10/13 09:38:39;;;;;;;26.03;21.97;;;13.70;99.90;;;;;;5065333;28;21011;-80
2022/10/13 09:41:13;;;;;;;25.90;21.90;;;13.80;99.90;;;;;;5067152;28;20453;-82
2022/10/13 09:43:43;;;;;;;24.20;21.60;;;13.90;99.90;;;;;;5064599;28;20475;-81
2022/10/13 09:46:24;;;;;;;24.17;21.77;;;13.90;99.90;;;;;;5066944;28;20573;-82
2022/10/13 09:48:55;;;;;;;27.30;21.33;;;14.00;99.90;;;;;;5065507;28;20442;-83
2022/10/13 09:51:36;;;;;;;24.20;20.17;;;14.10;99.90;;;;;;5070635;28;20830;-82
2022/10/13 09:54:28;;;;;;;25.13;22.00;;;14.20;99.90;;;;;;5061342;28;20491;-82
2022/10/13 09:57:02;;;;;;;23.80;20.90;;;14.20;99.90;;;;;;5059481;28;20979;-82
2022/10/13 09:59:34;;;;;;;27.03;22.27;;;14.20;99.90;;;;;;5061316;28;20446;-83
2022/10/13 10:02:17;;;;;;;25.07;22.37;;;14.30;99.90;;;;;;5058788;28;20478;-83
2022/10/13 10:04:50;;;;;;;26.40;22.03;;;14.30;99.90;;;;;;5057863;28;20810;-82
2022/10/13 10:07:21;;;;;;;26.63;22.20;;;14.40;99.90;;;;;;5058113;28;20522;-83
2022/10/13 10:09:54;;;;;;;24.00;20.63;;;14.50;99.90;;;;;;5059920;28;20514;-83
2022/10/13 10:12:29;;;;;;;25.77;23.00;;;14.50;99.90;;;;;;5058672;28;20835;-82
2022/10/13 10:14:58;;;;;;;25.13;21.30;;;14.60;99.90;;;;;;5063316;28;20461;-83
2022/10/13 10:17:33;;;;;;;26.10;22.53;;;14.70;99.90;;;;;;5058322;28;20452;-82
2022/10/13 10:20:16;;;;;;;25.07;22.63;;;14.70;99.90;;;;;;5059585;28;20425;-83
2022/10/13 10:22:52;;;;;;;23.23;20.73;;;14.80;99.90;;;;;;5057968;28;20802;-83
2022/10/13 10:25:32;;;;;;;25.63;20.77;;;14.80;99.90;;;;;;5057262;28;20539;-83
2022/10/13 10:28:23;;;;;;;22.83;20.43;;;14.90;99.90;;;;;;5058426;28;20445;-83
2022/10/13 10:31:00;;;;;;;24.60;21.10;;;14.90;99.90;;;;;;5058383;28;20491;-83
2022/10/13 10:33:40;;;;;;;23.20;20.73;;;14.90;99.90;;;;;;5059631;28;20426;-82
2022/10/13 10:36:15;;;;;;;23.90;21.40;;;15.00;99.90;;;;;;5058241;28;20466;-83
2022/10/13 10:38:50;;;;;;;22.23;19.67;;;15.00;99.90;;;;;;5058820;28;20791;-82
2022/10/13 10:41:36;;;;;;;23.20;20.90;;;15.00;99.90;;;;;;5059587;28;20441;-82
2022/10/13 10:44:09;;;;;;;24.33;21.07;;;15.10;99.90;;;;;;5060920;28;20500;-81
2022/10/13 10:46:42;;;;;;;27.47;19.57;;;15.10;99.90;;;;;;5058484;28;20471;-83
2022/10/13 10:49:25;;;;;;;22.37;19.80;;;15.20;99.90;;;;;;5057616;28;20461;-81
2022/10/13 10:51:55;;;;;;;22.60;20.20;;;15.20;99.90;;;;;;5058078;28;20994;-82
2022/10/13 10:54:32;;;;;;;23.40;21.00;;;15.30;99.90;;;;;;5057291;28;20442;-83
2022/10/13 10:57:08;;;;;;;23.50;20.23;;;15.30;99.90;;;;;;5059071;28;20445;-83
2022/10/13 10:59:50;;;;;;;22.60;19.50;;;15.40;99.90;;;;;;5059114;28;20540;-83
2022/10/13 11:02:42;;;;;;;20.73;17.90;;;15.40;99.90;;;;;;5060542;28;20457;-83
2022/10/13 11:05:12;;;;;;;24.80;18.80;;;15.50;99.90;;;;;;5060099;28;20842;-81
2022/10/13 11:07:58;;;;;;;21.13;17.83;;;15.50;99.90;;;;;;5058330;28;20441;-80
2022/10/13 11:10:28;;;;;;;20.20;18.00;;;15.60;99.90;;;;;;5058363;28;20436;-81
2022/10/13 11:13:24;;;;;;;20.20;17.50;;;15.60;99.90;;;;;;5056970;28;20477;-83
2022/10/13 11:15:54;;;;;;;23.30;16.87;;;15.60;99.90;;;;;;5058459;28;20470;-82
2022/10/13 11:19:06;;;;;;;18.00;16.00;;;15.70;99.90;;;;;;5058626;28;20457;-82
2022/10/13 11:22:23;;;;;;;18.70;15.93;;;15.70;99.90;;;;;;5057901;28;20794;-83
2022/10/13 11:25:23;;;;;;;21.10;16.20;;;15.70;99.90;;;;;;5056683;28;20811;-81
2022/10/13 11:27:51;;;;;;;17.97;15.03;;;15.80;99.90;;;;;;5057094;28;20438;-82
2022/10/13 11:30:48;;;;;;;16.50;12.33;;;15.80;99.90;;;;;;5058746;28;20464;-82
2022/10/13 11:33:34;;;;;;;17.77;13.97;;;15.80;99.90;;;;;;5059991;28;20558;-81
2022/10/13 11:36:39;;;;;;;14.10;12.70;;;15.80;99.90;;;;;;5059320;28;20469;-81
2022/10/13 11:39:41;;;;;;;16.23;13.43;;;15.80;99.90;;;;;;5062117;28;20811;-81
2022/10/13 11:42:29;;;;;;;13.30;11.87;;;15.80;99.90;;;;;;5070694;28;20481;-80
2022/10/13 11:45:00;;;;;;;16.67;12.43;;;15.90;99.90;;;;;;5062574;28;20816;-81
2022/10/13 11:48:00;;;;;;;18.80;12.23;;;15.90;99.90;;;;;;5061539;28;20440;-82
2022/10/13 11:50:37;;;;;;;17.70;12.77;;;15.90;99.90;;;;;;5071383;28;20463;-82
2022/10/13 11:53:19;;;;;;;15.97;12.23;;;15.90;99.90;;;;;;5073696;28;20453;-82
2022/10/13 11:55:52;;;;;;;14.33;12.53;;;16.00;99.90;;;;;;5072397;28;20457;-81
2022/10/13 11:58:24;;;;;;;16.37;10.97;;;16.00;99.90;;;;;;5073604;28;20484;-80
2022/10/13 12:00:54;;;;;;;16.07;11.97;;;16.10;99.90;;;;;;5073803;28;20469;-80
2022/10/13 12:03:26;;;;;;;19.43;12.80;;;16.10;99.90;;;;;;5073855;28;20462;-80
2022/10/13 12:05:57;;;;;;;14.20;12.70;;;16.20;99.90;;;;;;5073938;28;20454;-82
2022/10/13 12:08:28;;;;;;;16.47;13.00;;;16.20;99.90;;;;;;5074874;28;20445;-80
2022/10/13 12:10:58;;;;;;;18.03;13.10;;;16.30;99.90;;;;;;5074594;28;20393;-79
2022/10/13 12:13:31;;;;;;;14.83;12.87;;;16.40;99.90;;;;;;5073602;28;20483;-81
2022/10/13 12:16:02;;;;;;;12.87;11.47;;;16.40;99.90;;;;;;5072196;28;20477;-81
2022/10/13 12:18:32;;;;;;;16.87;12.73;;;16.40;99.90;;;;;;5074143;28;20418;-82
2022/10/13 12:21:03;;;;;;;14.30;12.80;;;16.50;99.90;;;;;;5072361;28;20448;-81
2022/10/13 12:23:32;;;;;;;15.57;13.83;;;16.40;99.90;;;;;;5072691;28;20427;-81
2022/10/13 12:26:00;;;;;;;17.17;13.67;;;16.40;99.90;;;;;;5074497;28;20975;-82
2022/10/13 12:28:44;;;;;;;18.67;14.13;;;16.40;99.90;;;;;;5074334;28;20438;-82
2022/10/13 12:31:19;;;;;;;17.37;14.37;;;16.40;99.90;;;;;;5069996;28;20492;-81
2022/10/13 12:33:53;;;;;;;16.60;15.00;;;16.30;99.90;;;;;;5056831;28;20471;-82
2022/10/13 12:36:26;;;;;;;19.00;14.03;;;16.30;99.90;;;;;;5055263;28;20465;-82
2022/10/13 12:39:01;;;;;;;18.27;15.23;;;16.30;99.90;;;;;;5055493;28;20463;-83
2022/10/13 12:41:33;;;;;;;19.97;15.20;;;16.30;99.90;;;;;;5056327;28;20517;-81
2022/10/13 12:44:04;;;;;;;17.40;15.60;;;16.30;99.90;;;;;;5054796;28;20447;-80
2022/10/13 12:46:42;;;;;;;19.00;15.07;;;16.30;99.90;;;;;;5054304;28;20479;-80
2022/10/13 12:49:14;;;;;;;17.63;15.10;;;16.20;99.90;;;;;;5058372;28;20431;-80
2022/10/13 12:51:45;;;;;;;18.17;14.70;;;16.20;99.90;;;;;;5060526;28;20426;-80
2022/10/13 12:54:19;;;;;;;21.13;14.57;;;16.20;99.90;;;;;;5057934;28;20466;-80
2022/10/13 12:56:48;;;;;;;17.97;15.20;;;16.20;99.90;;;;;;5060854;28;20836;-80
2022/10/13 12:59:25;;;;;;;18.37;14.77;;;16.20;99.90;;;;;;5059014;28;20444;-82
2022/10/13 13:01:59;;;;;;;20.80;13.93;;;16.20;99.90;;;;;;5060225;28;20787;-82
2022/10/13 13:04:41;;;;;;;17.37;14.20;;;16.20;99.90;;;;;;5058795;28;20465;-82